メインページ
METAR-TAF:

METAR-TAF

空港 :

フナフティ国際空港

フナフティ島, ツバル

緯度: 08-31S, 経度: 179-13E, 海抜: 1m

現時点の気象観測

当レポートは9分前の05:00(UTC)に作成
の風 7kt
気温 31°C
湿度 71%
気圧 1008 hPa
視程10km以上
高度2000ftの雲はほとんどない
高度31000ftの千切れ雲あり

METAR: NGFU 200500Z 10007KT 9999 FEW020 BKN310 31/25 Q1008

時間: 17:09 (05:09 UTC)

予報

当レポートは5時間51分前の23:18(UTC)に作成
予報は20日の 00時(UTC)から 20日の 24時(UTC)まで有効
の風 9kt
視程10km以上
高度1800ftの雲は散在している
確率 30% :
20日の 12時(UTC)から 20日の 20時(UTC)まで一時的に
視程: 5000m
高度1800ftの雲はほとんどない, 積乱雲.
激しい雷雨, 雨

TAF: NGFU 192318Z 2000/2024 10009KT 9999 SCT018 PROB30 TEMPO 2012/2020 5000 TSRA FEW018CB

4,000以上の空港の気象観測と天気予報(METAR報とTAF報)

利用可能な観測所は地図上に黄色い丸と赤い丸で示す。

丸の上にカーソルを重ねると観測所名を参照できる。

次にクリックすると気象観測と天気予報を参照できる。

マップの切り替え:黒色「×」印の緑ボタンをクリックして拡大、「-」印の緑ボタンをクリックして縮小、緑色の三角印をクリックして隣りの地図に切り替え


METAR-TAF: